MET: Información y Pronóstico Aeronáutico

MET: Información y Pronóstico Aeronáutico

///////////////////////////////////////////////////////////////////////////////////////////////////////////////////////////////////////////////////////////////////////////////////////////////////////////////////////////////////////////////

23 DE ENERO 2018

INFORMACION METEOROLOGICA AERONAUTICA (METAR) 12:00 UTC

Aeropuerto AEROPARQUE J. NEWBERY

23 - 12:00 METAR SABE 231200Z 35005KT 300V030 CAVOK 27/21 Q1003 =

Aeropuerto BAHIA BLANCA

23 - 12:00 METAR SAZB 231200Z 32009KT CAVOK 25/17 Q1001 =

Aeropuerto BARILOCHE

23 - 12:00 METAR SAZS 231200Z 31009KT 9999 FEW040 SCT200 13/03 Q1013 =

Aeropuerto EL CALAFATE

23 - 12:00 METAR SAWC 231200Z 23015KT 9999 FEW035 09/M04 Q1010 =

Aeropuerto EZEIZA

23 - 12:00 METAR SAEZ 231100Z 00000KT 9000 NSC 24/21 Q1003 =

Aeropuerto IGUAZU/CATARATAS

23 - 12:00 METAR SARI 231200Z 05005KT CAVOK 27/24 Q1010 =

Aeropuerto JUJUY

23 - 12:00 METAR SASJ 231200Z 32004KT 9999 FEW035 SCT200 23/18 Q1009 =

Aeropuerto MAR DEL PLATA

23 - 12:00 METAR SAZM 231200Z 34008KT 9999 SCT019 SCT200 24/20 Q1003 =

Aeropuerto MENDOZA

23 - 12:00 METAR SAME 231100Z 27002KT CAVOK 21/12 Q1008 =

Aeropuerto CHAPELCO

23 - 12:00 METAR SAZY 231200Z 25014KT 9999 FEW045 13/06 Q1012 =

Aeropuerto COMODORO RIVADAVIA

23 - 12:00 METAR SAVC 231200Z 23008KT 150V270 9999 FEW045 16/04 Q1011 =

Aeropuerto CORDOBA

23 - 12:00 METAR SACO 231200Z 21004KT 9999 FEW035 27/19 Q1007 =

Aeropuerto NEUQUEN

23 - 12:00 METAR SAZN 231200Z 18002KT CAVOK 20/08 Q1010 =

Aeropuerto POSADAS

23 - 12:00 METAR SARP 231200Z 36006KT 9999 FEW040TCU BKN100 27/23 Q1007 =

Aeropuerto RESISTENCIA

23 - 12:00 METAR SARE 231200Z 35011KT CAVOK 29/24 Q1003 =

Aeropuerto RIO GRANDE

23 - 12:00 METAR SAWE 231200Z 25013KT 9999 FEW016 09/04 Q1002 =

Aeropuerto ROSARIO

23 - 12:00 METAR SAAR 231200Z 27003KT 9999 FEW045CB SCT100 OVC200 23/19 Q1004 =

Aeropuerto SALTA

23 - 12:00 METAR SASA 231200Z 14003KT 9999 FEW020 SCT200 21/19 Q1011 =

Aeropuerto SAN FERNANDO

23 - 12:00 METAR SADF 231200Z 29005KT CAVOK 27/21 Q1003 =

Aeropuerto SANTA ROSA

23 - 12:00 METAR SAZR 231200Z 23013KT CAVOK 23/08 Q1004 =

Aeropuerto TRELEW

23 - 12:00 METAR SAVT 231200Z 23018KT 9999 FEW040TCU 19/04 Q1009 RMK TCU TO S =

Aeropuerto TUCUMAN

23 - 12:00 METAR SANT 231200Z 00000KT CAVOK 26/21 Q1006 =

Aeropuerto USHUAIA

23 - 12:00 METAR SAWH 231200Z 23003KT 9999 SCT040 BKN080 07/03 Q1001 =

 

PRONOSTICO DE AERODROMO (TAF) 11:00 UTC

 

Estación AEROPARQUE J. NEWBERY

23 - 11:00 TAF SABE 231100Z 2312/2412 36010KT 9999 FEW015 FEW040TCU BKN200 TX34/2317Z TN19/2409Z TEMPO 2313/2316 7000 TSRA SCT020 FEW045CB BKN060 BECMG 2317/2320 25015G30KT 4000 TSRA BKN020 FEW040CB BKN050 BECMG 2404/2406 20015KT 9999 BKN020 =

Estación BAHIA BLANCA

23 - 11:00 TAF SAZB 231100Z 2312/2412 34010KT CAVOK TX30/2319Z TN14/2409Z BECMG 2313/2315 18020KT BECMG 2402/2406 16010KT =

Estación BARILOCHE

23 - 11:00 TAF SAZS 231100Z 2312/2412 VRB03KT 9999 SCT030 SCT100 TX19/2319Z TN08/2409Z BECMG 2314/2316 29015KT BECMG 2404/2406 11015KT =

Estación EL CALAFATE

23 - 11:00 TAF SAWC 231100Z 2312/2412 25020KT 999 FEW030 TX14/2318Z TN06/2411Z BECMG 2321/2323 27010KT =

Estación EZEIZA

23 - 11:00 TAF SAEZ 231100Z 2312/2312 VRB03KT 9000 FEW040TCU BKN200 TX35/2317Z TN18/2409Z TEMPO 2313/2316 34005KT 7000 SHRA SCT020 FEW045CB BKN060 BECMG 2317/2320 25015G30KT 4000 TSRA BKN020 FEW040CB BKN050 BECMG 2404/2406 20015KT 9999 BKN020 =

Estación IGUAZU/CATARATAS

23 - 11:00 TAF SARI 231100Z 2312/2412 05005KT CAVOK TX27/2318Z TN20/2409Z BECMG 2314/2316 9999 SCT030 FEW040TCU BKN100 PROB40 TEMPO 2319/2323 8000 SHRA SCT030 FEW050CB BKN100 BECMG 2400/2402 CAVOK =

Estación JUJUY

23 - 11:00 TAF SASJ 231100Z 2312/2412 32005KT 9999 SCT030 TX33/2318Z TN20/2410Z BECMG 2313/2316 07005KT 9999 SCT030 FEW040CB BECMG 2320/2323 07010KT 7000 TSRA BKN030 FEW040CB =

Estación MAR DEL PLATA

23 - 11:00 TAF SAZM 231100Z 2312/2412 36003KT 9999 FEW040TCU BKN100 TX30/2318Z TN15/2409Z BECMG 2316/2318 07015KT 6000 TSRA SCT020 FEW040CB BKN045 BECMG 2401/2404 24020KT 5000 DZ SCT007 BKN010 BECMG 2411/2412 20015G25KT 9999 SCT010 BKN018 =

Estación MENDOZA

23 - 11:00 TAF SAME 231100Z 2312/2412 05005KT 9999 SCT040 FEW040TCU TX34/2320Z TN19/2310Z PROB40 TEMPO 2322/2400 14010KT 9999 VCTS SCT040 FEW050CB BECMG 2304/2306 14015KT 8000 TSRA SCT030 FEW040TCU FEW040CB =

Estación CHAPELCO

23 - 11:00 TAF SAZY 231100Z 2312/2412 25010KT CAVOK TX24/2319Z TN10/2409Z BECMG 2316/2618 25015KT BECMG 2323/2401 VRB03KT BECMG 2405/2407 16010KT =

Estación COMODORO RIVADAVIA

23 - 11:00 TAF SAVC 231100Z 2312/2412 18015KT 9999 FEW030 TX20/2319Z TN13/2411Z BECMG 2315/2317 11010KT BKN030 BECMG 2322/2400 02010KT CAVOK =

Estación CORDOBA

23 - 11:00 TAF SACO 231100Z 2312/2412 36005KT 9999 SCT030 TX36/2318Z TN20/2410Z BECMG 2315/2318 05010KT 9999 SCT030 FEW040CB BECMG 2320/2323 18010KT 7000 TSRA BKN025 FEW040CB =

Estación NEUQUEN

23 - 11:00 TAF SAZN 231100Z 2312/2412 VRB03KT CAVOK TX29/2319Z TN14/2409Z BECMG 2313/2315 25010KT BECMG 2317/2318 20015KT BECMG 2404/2406 09015KT =

Estación POSADAS

23 - 11:00 TAF SARP 231100Z 2312/2412 07005KT 9999 SCT030 FEW040TCU TX28/2318Z TN23/2409Z BECMG 2315/2317 8000 TSRA SCT030 BKN040 FEW045CB BECMG 2321/2323 9999 SCT030 =

Estación RESISTENCIA

23 - 11:00 TAF SARE 231100Z 2312/2412 05005KT 9999 SCT030 FEW040TCU TX28/2318Z TN23/2409Z BECMG 2315/2317 8000 TSRA SCT030 BKN040 FEW045CB BECMG 2321/2323 9999 SCT030 =

Estación RIO GRANDE

23 - 11:00 TAF SAWE 231100Z 2312/2412 25020KT 9999 SCT020 SCT090 TX13/2318Z TN07/2411Z BECMG 316/2318 BKN020 BECMG 2401/2403 29020G30KT SCT020 BKN090 =

Estación ROSARIO

23 - 11:00 TAF SAAR 231100Z 2312/2412 20010KT 9999 SCT020 FEW040CB SCT080 TX36/2319Z TN20/2409Z TEMPO 2313/2321 30010KT 7000 TSRA BKN020 FEW040CB BKN050 BECMG 2321/2323 20015KT 4000 TSRA BKN015 FEW040CB BKN040 BECMG 2404/2406 17015KT 9999 BKN020 =

Estación SALTA

23 - 11:00 TAF SASA 231100Z 2312/2412 VRB05KT 9999 SCT020 TX31/2318Z TN18/2410Z BECMG 2313/2316 05005KT 9999 SCT020 FEW030CB BECMG 2320/2323 07010KT 7000 TSRA BKN020 FEW030CB =

Estación SAN FERNANDO

23 - 11:00 TAF SADF 231100Z 2312/2412 34005KT CAVOK TX33/2318Z TN19/2409Z BECMG 2313/2316 SCT030 FEW035TCU SCT100 BECMG 2318/2321 18010G20KT 8000 TSRA SCT035TCU FEW040CB BKN050 BECMG 2402/2404 18010KT 9999 SCT020 =

Estación SANTA ROSA

23 - 11:00 TAF SAZR 231100Z 2312/2412 23010KT CAVOK TX34/2319Z TN13/2409Z BECMG 2313/2315 20015KT =

Estación TRELEW

23 - 11:00 TAF SAVT 231100Z 2312/2412 20020KT CAVOK TX22/2318ZX TN12/2411Z BECMG 2316/2318 14020KT 9999 SCT030 BECMG 2404/2406 VRB03KT =

Estación TUCUMAN

23 - 11:00 TAF SANT 231100Z 2312/2412 36005KT 9999 SCT035 TX36/2318Z TN23/2410Z BECMG 2315/2318 05005KT 9999 SCT040 FEW050CB BECMG 2402/2405 36005KT 7000 TSRA BKN030 FEW040CB =

Estación USHUAIA

23 - 11:00 TAF SAWH 231100Z 2312/2412 25020KT 9999 -RA BKN025 BKN060 TX10/2318ZX TN05/2411Z BECMG 2403/2405 30015KT NSW SCT030 BKN090 =